createdAt,value
2018-08-22T00:00:43.441Z,44.92
2018-08-22T00:03:09.407Z,44.78
2018-08-22T00:05:35.374Z,44.57
2018-08-22T00:08:01.309Z,45.42
2018-08-22T00:10:27.281Z,45.04
2018-08-22T00:12:53.200Z,45.40
2018-08-22T00:15:19.254Z,45.59
2018-08-22T00:17:45.127Z,45.31
2018-08-22T00:20:11.092Z,45.75
2018-08-22T00:22:37.084Z,46.01
2018-08-22T00:25:02.997Z,46.17
2018-08-22T00:27:28.927Z,46.74
2018-08-22T00:29:54.881Z,45.67
2018-08-22T00:32:20.841Z,46.36
2018-08-22T00:34:46.784Z,45.43
2018-08-22T00:37:12.708Z,45.19
2018-08-22T00:39:38.654Z,45.43
2018-08-22T00:42:04.580Z,45.19
2018-08-22T00:44:30.529Z,45.69
2018-08-22T00:46:56.466Z,46.17
2018-08-22T00:49:22.419Z,46.08
2018-08-22T00:51:48.366Z,45.92
2018-08-22T00:54:14.319Z,45.81
2018-08-22T00:56:40.344Z,46.54
2018-08-22T00:59:06.285Z,46.46
2018-08-22T01:01:32.211Z,45.83
2018-08-22T01:03:58.134Z,45.28
2018-08-22T01:06:24.235Z,46.46
2018-08-22T01:08:50.178Z,46.54
2018-08-22T01:11:16.126Z,45.59
2018-08-22T01:13:42.072Z,45.22
2018-08-22T01:16:08.003Z,46.59
2018-08-22T01:18:33.929Z,45.97
2018-08-22T01:20:59.864Z,46.75
2018-08-22T01:23:25.787Z,47.22
2018-08-22T01:25:51.728Z,47.17
2018-08-22T01:28:17.669Z,46.26
2018-08-22T01:30:43.608Z,46.34
2018-08-22T01:33:09.527Z,46.19
2018-08-22T01:35:35.476Z,46.43
2018-08-22T01:38:01.406Z,45.48
2018-08-22T01:40:27.354Z,46.10
2018-08-22T01:42:53.320Z,45.89
2018-08-22T01:45:19.256Z,46.18
2018-08-22T01:47:45.199Z,46.22
2018-08-22T01:50:11.163Z,45.83
2018-08-22T01:52:37.096Z,45.94
2018-08-22T01:55:03.050Z,44.63
2018-08-22T01:57:28.975Z,45.32
2018-08-22T01:59:54.902Z,45.24
2018-08-22T02:02:20.847Z,44.85
2018-08-22T02:04:46.801Z,45.30
2018-08-22T02:07:12.744Z,45.14
2018-08-22T02:09:38.692Z,46.20
2018-08-22T02:12:04.622Z,45.90
2018-08-22T02:14:30.574Z,46.12
2018-08-22T02:16:56.519Z,46.58
2018-08-22T02:19:22.459Z,45.84
2018-08-22T02:21:48.381Z,45.78
2018-08-22T02:24:14.312Z,45.57
2018-08-22T02:26:40.272Z,45.15
2018-08-22T02:29:06.226Z,46.35
2018-08-22T02:31:32.158Z,46.66
2018-08-22T02:33:58.108Z,46.54
2018-08-22T02:36:24.071Z,45.71
2018-08-22T02:38:50.029Z,46.02
2018-08-22T02:41:16.018Z,46.50
2018-08-22T02:43:41.964Z,46.05
2018-08-22T02:46:07.992Z,45.92
2018-08-22T02:48:33.921Z,46.35
2018-08-22T02:50:59.887Z,46.06
2018-08-22T02:53:25.819Z,46.52
2018-08-22T02:55:51.784Z,46.63
2018-08-22T02:58:17.720Z,45.85
2018-08-22T03:00:43.648Z,45.57
2018-08-22T03:03:09.604Z,46.13
2018-08-22T03:05:35.553Z,46.13
2018-08-22T03:08:01.595Z,46.73
2018-08-22T03:10:27.534Z,46.60
2018-08-22T03:12:53.498Z,46.91
2018-08-22T03:15:19.448Z,46.38
2018-08-22T03:17:45.385Z,46.92
2018-08-22T03:20:11.349Z,47.53
2018-08-22T03:22:37.351Z,46.65
2018-08-22T03:25:03.347Z,46.47
2018-08-22T03:27:29.328Z,46.13
2018-08-22T03:29:55.400Z,46.79
2018-08-22T03:32:21.422Z,46.74
2018-08-22T03:34:47.426Z,47.28
2018-08-22T03:37:13.401Z,47.29
2018-08-22T03:39:39.353Z,47.40
2018-08-22T03:42:05.312Z,46.91
2018-08-22T03:44:33.875Z,46.97
2018-08-22T03:47:00.054Z,46.46
2018-08-22T03:49:26.009Z,46.67
2018-08-22T03:51:51.973Z,46.67
2018-08-22T03:54:17.941Z,48.73
2018-08-22T03:56:43.887Z,48.64
2018-08-22T03:59:09.872Z,47.36
2018-08-22T04:01:35.850Z,47.02
2018-08-22T04:04:01.848Z,47.61
2018-08-22T04:06:27.788Z,46.75
2018-08-22T04:08:53.782Z,46.70
2018-08-22T04:11:19.769Z,46.35
2018-08-22T04:13:45.715Z,46.64
2018-08-22T04:16:11.668Z,46.27
2018-08-22T04:18:37.646Z,46.88
2018-08-22T04:21:03.585Z,47.43
2018-08-22T04:23:29.551Z,46.29
2018-08-22T04:25:55.519Z,47.15
2018-08-22T04:28:21.475Z,46.11
2018-08-22T04:30:47.434Z,47.60
2018-08-22T04:33:13.402Z,46.64
2018-08-22T04:35:39.360Z,47.66
2018-08-22T04:40:31.072Z,46.10
2018-08-22T04:42:57.023Z,46.64
2018-08-22T04:45:22.992Z,45.67
2018-08-22T04:47:48.920Z,46.64
2018-08-22T04:50:14.904Z,47.39
2018-08-22T04:52:40.892Z,48.52
2018-08-22T04:55:06.835Z,49.64
2018-08-22T04:57:32.803Z,47.79
2018-08-22T04:59:58.757Z,47.27
2018-08-22T05:02:24.739Z,48.46
2018-08-22T05:04:50.692Z,47.03
2018-08-22T05:07:16.656Z,46.96
2018-08-22T05:09:42.590Z,45.87
2018-08-22T05:12:08.524Z,45.92
2018-08-22T05:14:34.631Z,45.59
2018-08-22T05:17:00.602Z,46.66
2018-08-22T05:19:26.628Z,46.03
2018-08-22T05:21:52.689Z,46.76
2018-08-22T05:24:18.627Z,46.22
2018-08-22T05:26:44.581Z,46.74
2018-08-22T05:29:10.531Z,46.12
2018-08-22T05:31:36.568Z,46.16
2018-08-22T05:34:02.570Z,45.37
2018-08-22T05:36:28.510Z,43.65
2018-08-22T05:38:54.469Z,44.89
2018-08-22T05:41:20.468Z,44.47
2018-08-22T05:43:46.417Z,44.78
2018-08-22T05:46:12.373Z,44.66
2018-08-22T05:48:38.477Z,45.05
2018-08-22T05:51:04.420Z,44.67
2018-08-22T05:53:30.390Z,44.51
2018-08-22T05:55:56.394Z,44.49
2018-08-22T05:58:22.347Z,44.49
2018-08-22T06:00:48.371Z,44.34
2018-08-22T06:03:14.404Z,43.63
2018-08-22T06:05:40.395Z,44.63
2018-08-22T06:08:06.354Z,44.03
2018-08-22T06:10:32.295Z,44.11
2018-08-22T06:12:58.256Z,43.32
2018-08-22T06:15:24.193Z,43.58
2018-08-22T06:17:50.126Z,43.69
2018-08-22T06:20:16.065Z,42.93
2018-08-22T06:22:42.000Z,42.23
2018-08-22T06:25:07.944Z,42.66
2018-08-22T06:27:33.874Z,42.20
2018-08-22T06:29:59.845Z,41.82
2018-08-22T06:32:25.781Z,41.26
2018-08-22T06:34:51.731Z,41.65
2018-08-22T06:37:17.657Z,41.56
2018-08-22T06:39:43.596Z,41.29
2018-08-22T06:42:09.534Z,40.76
2018-08-22T06:44:35.482Z,40.86
2018-08-22T06:47:01.427Z,40.66
2018-08-22T06:49:27.393Z,40.19
2018-08-22T06:51:53.333Z,40.77
2018-08-22T06:54:19.319Z,41.33
2018-08-22T06:56:45.276Z,40.38
2018-08-22T06:59:11.292Z,40.16
2018-08-22T07:01:37.220Z,38.73
2018-08-22T07:04:03.207Z,39.53
2018-08-22T07:06:29.171Z,38.00
2018-08-22T07:08:55.129Z,37.63
2018-08-22T07:11:21.076Z,37.04
2018-08-22T07:13:47.312Z,37.13
2018-08-22T07:16:13.272Z,37.55
2018-08-22T07:18:39.249Z,37.82
2018-08-22T07:21:05.322Z,38.00
2018-08-22T07:23:31.227Z,38.04
2018-08-22T07:25:57.231Z,38.07
2018-08-22T07:28:23.307Z,37.62
2018-08-22T07:30:49.274Z,36.47
2018-08-22T07:33:15.228Z,37.73
2018-08-22T07:35:41.178Z,37.46
2018-08-22T07:38:07.159Z,35.72
2018-08-22T07:40:33.104Z,36.21
2018-08-22T07:42:59.072Z,35.92
2018-08-22T07:45:25.011Z,37.58
2018-08-22T07:47:50.947Z,37.55
2018-08-22T07:50:16.975Z,37.12
2018-08-22T07:52:42.893Z,36.69
2018-08-22T07:55:08.924Z,35.84
2018-08-22T07:57:34.870Z,34.92
2018-08-22T08:00:00.812Z,34.86
2018-08-22T08:02:26.765Z,35.13
2018-08-22T08:04:52.731Z,36.73
2018-08-22T08:07:18.687Z,36.01
2018-08-22T08:09:44.676Z,35.19
2018-08-22T08:12:10.642Z,34.04
2018-08-22T08:14:36.607Z,35.26
2018-08-22T08:17:02.593Z,35.16
2018-08-22T08:19:28.541Z,33.27
2018-08-22T08:21:54.481Z,29.57
2018-08-22T08:24:20.442Z,30.25
2018-08-22T08:26:46.401Z,30.12
2018-08-22T08:29:12.344Z,30.95
2018-08-22T08:31:38.292Z,29.31
2018-08-22T08:34:04.287Z,26.89
2018-08-22T08:36:30.221Z,29.28
2018-08-22T08:38:56.140Z,29.38
2018-08-22T08:41:22.086Z,30.18
2018-08-22T08:43:48.027Z,30.79
2018-08-22T08:46:13.970Z,33.60
2018-08-22T08:48:39.931Z,32.57
2018-08-22T08:51:05.911Z,33.39
2018-08-22T08:53:31.880Z,33.24
2018-08-22T08:55:57.858Z,33.92
2018-08-22T08:58:23.791Z,34.30
2018-08-22T09:00:49.757Z,34.81
2018-08-22T09:03:15.691Z,35.46
2018-08-22T09:05:41.641Z,34.98
2018-08-22T09:08:07.574Z,34.94
2018-08-22T09:10:33.558Z,34.38
2018-08-22T09:12:59.484Z,35.52
2018-08-22T09:15:25.456Z,35.74
2018-08-22T09:17:51.395Z,35.80
2018-08-22T09:20:17.347Z,35.42
2018-08-22T09:22:43.292Z,35.63
2018-08-22T09:25:09.279Z,34.97
2018-08-22T09:27:35.306Z,35.80
2018-08-22T09:30:01.350Z,35.68
2018-08-22T09:32:27.261Z,36.09
2018-08-22T09:34:53.209Z,35.95
2018-08-22T09:37:19.165Z,36.72
2018-08-22T09:39:45.155Z,36.59
2018-08-22T09:42:11.092Z,35.67
2018-08-22T09:44:37.017Z,35.72
2018-08-22T09:47:03.067Z,36.30
2018-08-22T09:49:29.081Z,35.51
2018-08-22T09:51:55.050Z,35.29
2018-08-22T09:54:20.992Z,36.02
2018-08-22T09:56:47.074Z,37.82
2018-08-22T09:59:13.025Z,36.24
2018-08-22T10:01:39.001Z,36.66
2018-08-22T10:04:04.959Z,37.00
2018-08-22T10:06:30.988Z,36.39
2018-08-22T10:08:56.890Z,35.95
2018-08-22T10:11:22.878Z,35.68
2018-08-22T10:13:48.845Z,35.68
2018-08-22T10:16:14.784Z,35.79
2018-08-22T10:18:40.732Z,37.64
2018-08-22T10:21:06.688Z,36.07
2018-08-22T10:23:32.649Z,36.54
2018-08-22T10:25:58.593Z,35.75
2018-08-22T10:28:24.524Z,35.58
2018-08-22T10:30:50.480Z,35.71
2018-08-22T10:33:16.537Z,36.17
2018-08-22T10:35:42.479Z,36.71
2018-08-22T10:38:09.019Z,36.19
2018-08-22T10:40:34.993Z,35.55
2018-08-22T10:43:00.931Z,37.21
2018-08-22T10:45:26.872Z,37.13
2018-08-22T10:47:52.879Z,36.41
2018-08-22T10:50:18.809Z,36.77
2018-08-22T10:52:44.748Z,35.63
2018-08-22T10:55:10.753Z,35.43
2018-08-22T10:57:36.713Z,35.38
2018-08-22T11:00:02.757Z,35.75
2018-08-22T11:02:29.500Z,35.99
2018-08-22T11:04:55.436Z,35.21
2018-08-22T11:07:21.415Z,37.38
2018-08-22T11:09:47.375Z,36.69
2018-08-22T11:12:13.325Z,36.12
2018-08-22T11:14:39.272Z,36.94
2018-08-22T11:17:05.252Z,36.28
2018-08-22T11:19:31.237Z,35.49
2018-08-22T11:21:57.203Z,35.92
2018-08-22T11:24:23.155Z,35.17
2018-08-22T11:26:49.130Z,35.62
2018-08-22T11:29:15.064Z,35.81
2018-08-22T11:31:41.005Z,35.32
2018-08-22T11:34:07.025Z,35.71
2018-08-22T11:36:32.975Z,35.38
2018-08-22T11:38:58.919Z,36.04
2018-08-22T11:41:24.880Z,35.77
2018-08-22T11:43:50.834Z,36.33
2018-08-22T11:46:16.792Z,35.75
2018-08-22T11:48:42.748Z,35.78
2018-08-22T11:51:08.724Z,35.75
2018-08-22T11:53:34.717Z,35.62
2018-08-22T11:56:00.669Z,35.66
2018-08-22T11:58:26.620Z,35.69
2018-08-22T12:00:52.598Z,36.20
2018-08-22T12:03:18.531Z,36.16
2018-08-22T12:05:44.497Z,35.56
2018-08-22T12:08:10.463Z,35.94
2018-08-22T12:10:36.433Z,35.23
2018-08-22T12:13:02.381Z,35.74
2018-08-22T12:15:28.316Z,35.83
2018-08-22T12:17:54.298Z,35.88
2018-08-22T12:20:20.254Z,36.04
2018-08-22T12:22:46.214Z,35.42
2018-08-22T12:25:12.187Z,35.99
2018-08-22T12:27:38.165Z,35.49
2018-08-22T12:30:04.177Z,35.75
2018-08-22T12:32:30.129Z,35.57
2018-08-22T12:34:56.092Z,35.80
2018-08-22T12:37:22.088Z,36.14
2018-08-22T12:39:48.038Z,35.72
2018-08-22T12:42:14.013Z,34.47
2018-08-22T12:44:40.004Z,35.17
2018-08-22T12:47:05.922Z,34.85
2018-08-22T12:49:31.886Z,33.97
2018-08-22T12:51:57.856Z,35.14
2018-08-22T12:54:23.851Z,35.01
2018-08-22T12:56:49.813Z,34.90
2018-08-22T12:59:15.783Z,34.43
2018-08-22T13:01:41.760Z,35.22
2018-08-22T13:04:07.700Z,34.40
2018-08-22T13:06:33.627Z,34.75
2018-08-22T13:08:59.616Z,34.28
2018-08-22T13:11:25.577Z,33.54
2018-08-22T13:13:51.557Z,33.98
2018-08-22T13:16:17.514Z,33.56
2018-08-22T13:18:43.469Z,34.23
2018-08-22T13:21:09.437Z,34.07
2018-08-22T13:23:35.464Z,35.04
2018-08-22T13:26:01.435Z,34.26
2018-08-22T13:28:27.431Z,33.72
2018-08-22T13:30:53.374Z,34.36
2018-08-22T13:33:19.314Z,33.99
2018-08-22T13:35:45.368Z,33.71
2018-08-22T13:38:11.303Z,34.04
2018-08-22T13:40:37.295Z,33.10
2018-08-22T13:43:03.295Z,33.64
2018-08-22T13:45:29.299Z,33.89
2018-08-22T13:47:55.256Z,33.81
2018-08-22T13:50:21.244Z,33.93
2018-08-22T13:52:47.200Z,34.79
2018-08-22T13:55:13.151Z,34.58
2018-08-22T13:57:39.086Z,34.43
2018-08-22T14:00:05.067Z,34.54
2018-08-22T14:02:31.022Z,34.11
2018-08-22T14:04:56.987Z,35.19
2018-08-22T14:07:22.925Z,34.70
2018-08-22T14:09:48.965Z,33.62
2018-08-22T14:12:14.899Z,34.25
2018-08-22T14:14:40.886Z,33.29
2018-08-22T14:17:06.833Z,33.50
2018-08-22T14:19:32.816Z,33.29
2018-08-22T14:21:58.768Z,33.57
2018-08-22T14:24:24.709Z,33.38
2018-08-22T14:26:50.660Z,33.37
2018-08-22T14:29:16.619Z,33.60
2018-08-22T14:31:42.541Z,33.69
2018-08-22T14:34:08.488Z,33.61
2018-08-22T14:36:34.460Z,32.43
2018-08-22T14:39:00.400Z,33.18
2018-08-22T14:41:26.334Z,33.11
2018-08-22T14:43:52.294Z,33.66
2018-08-22T14:46:18.258Z,32.97
2018-08-22T14:48:44.208Z,32.27
2018-08-22T14:51:10.168Z,32.62
2018-08-22T14:53:36.108Z,33.52
2018-08-22T14:56:02.096Z,32.64
2018-08-22T14:58:28.005Z,32.37
2018-08-22T15:00:53.979Z,33.33
2018-08-22T15:03:20.156Z,32.75
2018-08-22T15:05:45.908Z,33.06
2018-08-22T15:08:11.878Z,33.06
2018-08-22T15:10:37.863Z,32.58
2018-08-22T15:13:03.892Z,32.20
2018-08-22T15:15:29.807Z,33.26
2018-08-22T15:17:55.764Z,32.61
2018-08-22T15:20:21.733Z,32.54
2018-08-22T15:22:47.687Z,32.06
2018-08-22T15:25:13.626Z,33.46
2018-08-22T15:27:39.569Z,32.68
2018-08-22T15:30:05.516Z,32.58
2018-08-22T15:32:31.494Z,32.32
2018-08-22T15:34:57.448Z,32.59
2018-08-22T15:37:23.453Z,32.13
2018-08-22T15:39:49.425Z,32.63
2018-08-22T15:42:15.363Z,32.19
2018-08-22T15:44:41.322Z,32.55
2018-08-22T15:47:07.274Z,32.50
2018-08-22T15:49:33.242Z,32.43
2018-08-22T15:51:59.188Z,32.54
2018-08-22T15:54:25.130Z,32.76
2018-08-22T15:56:51.135Z,32.42
2018-08-22T15:59:17.111Z,33.04
2018-08-22T16:01:43.068Z,32.44
2018-08-22T16:04:09.033Z,32.31
2018-08-22T16:06:34.998Z,32.52
2018-08-22T16:09:00.944Z,32.54
2018-08-22T16:11:26.935Z,32.61
2018-08-22T16:13:52.891Z,31.87
2018-08-22T16:16:18.876Z,31.74
2018-08-22T16:18:44.824Z,31.98
2018-08-22T16:21:10.788Z,32.39
2018-08-22T16:23:36.737Z,32.29
2018-08-22T16:26:02.685Z,32.30
2018-08-22T16:28:28.651Z,31.68
2018-08-22T16:30:57.433Z,31.73
2018-08-22T16:33:20.570Z,32.30
2018-08-22T16:35:46.580Z,32.30
2018-08-22T16:38:12.508Z,32.16
2018-08-22T16:40:38.432Z,32.38
2018-08-22T16:43:04.369Z,31.91
2018-08-22T16:45:30.303Z,32.20
2018-08-22T16:47:56.272Z,31.75
2018-08-22T16:50:22.239Z,32.26
2018-08-22T16:52:48.215Z,31.58
2018-08-22T16:55:14.177Z,32.24
2018-08-22T16:57:40.140Z,30.71
2018-08-22T17:00:06.110Z,30.92
2018-08-22T17:02:32.081Z,31.70
2018-08-22T17:04:58.010Z,31.46
2018-08-22T17:07:23.974Z,31.34
2018-08-22T17:09:49.929Z,31.18
2018-08-22T17:12:15.888Z,31.70
2018-08-22T17:14:41.838Z,31.44
2018-08-22T17:17:07.791Z,31.81
2018-08-22T17:19:33.733Z,31.97
2018-08-22T17:21:59.736Z,31.91
2018-08-22T17:24:25.718Z,31.17
2018-08-22T17:26:51.698Z,31.38
2018-08-22T17:29:17.694Z,31.27
2018-08-22T17:31:43.666Z,31.36
2018-08-22T17:34:09.684Z,31.36
2018-08-22T17:36:35.633Z,31.90
2018-08-22T17:39:01.585Z,31.81
2018-08-22T17:41:27.555Z,31.09
2018-08-22T17:43:53.552Z,31.38
2018-08-22T17:46:19.548Z,31.67
2018-08-22T17:48:45.529Z,31.89
2018-08-22T17:51:12.582Z,31.19
2018-08-22T17:53:38.560Z,31.39
2018-08-22T17:56:04.521Z,32.04
2018-08-22T17:58:30.669Z,32.18
2018-08-22T18:00:56.697Z,32.31
2018-08-22T18:03:22.694Z,32.05
2018-08-22T18:05:48.642Z,32.05
2018-08-22T18:08:14.588Z,32.15
2018-08-22T18:10:40.546Z,32.76
2018-08-22T18:13:06.501Z,32.55
2018-08-22T18:15:32.453Z,32.78
2018-08-22T18:17:58.400Z,33.42
2018-08-22T18:20:24.362Z,34.08
2018-08-22T18:22:50.382Z,34.35
2018-08-22T18:25:16.347Z,34.34
2018-08-22T18:27:42.325Z,34.48
2018-08-22T18:30:08.319Z,34.10
2018-08-22T18:32:34.266Z,34.43
2018-08-22T18:35:00.255Z,34.76
2018-08-22T18:37:26.172Z,34.06
2018-08-22T18:39:52.144Z,34.89
2018-08-22T18:42:18.110Z,34.47
2018-08-22T18:44:44.096Z,34.12
2018-08-22T18:47:10.077Z,34.86
2018-08-22T18:49:36.067Z,34.95
2018-08-22T18:52:02.018Z,35.07
2018-08-22T18:54:27.984Z,35.14
2018-08-22T18:56:53.945Z,34.45
2018-08-22T18:59:20.019Z,34.46
2018-08-22T19:01:45.971Z,35.11
2018-08-22T19:04:11.936Z,34.66
2018-08-22T19:06:37.964Z,35.28
2018-08-22T19:09:03.937Z,34.80
2018-08-22T19:11:29.892Z,34.72
2018-08-22T19:13:55.874Z,34.82
2018-08-22T19:16:21.833Z,35.25
2018-08-22T19:18:47.785Z,34.85
2018-08-22T19:21:13.737Z,35.40
2018-08-22T19:23:39.712Z,35.03
2018-08-22T19:26:05.754Z,35.00
2018-08-22T19:28:31.746Z,35.21
2018-08-22T19:30:57.713Z,35.70
2018-08-22T19:33:23.679Z,35.12
2018-08-22T19:35:49.646Z,35.62
2018-08-22T19:38:15.623Z,35.95
2018-08-22T19:40:41.578Z,35.57
2018-08-22T19:43:07.547Z,35.10
2018-08-22T19:45:33.519Z,35.14
2018-08-22T19:47:59.486Z,35.38
2018-08-22T19:50:25.505Z,35.40
2018-08-22T19:52:51.465Z,34.97
2018-08-22T19:55:17.477Z,35.66
2018-08-22T19:57:43.415Z,35.60
2018-08-22T20:00:09.442Z,35.38
2018-08-22T20:02:35.407Z,35.28
2018-08-22T20:05:01.381Z,35.63
2018-08-22T20:07:27.334Z,35.57
2018-08-22T20:09:53.301Z,34.92
2018-08-22T20:12:19.238Z,35.55
2018-08-22T20:14:45.271Z,35.27
2018-08-22T20:17:11.301Z,35.59
2018-08-22T20:19:37.209Z,35.93
2018-08-22T20:22:03.191Z,36.26
2018-08-22T20:24:29.376Z,36.13
2018-08-22T20:26:55.222Z,36.43
2018-08-22T20:29:21.199Z,35.85
2018-08-22T20:31:47.173Z,36.07
2018-08-22T20:34:13.169Z,36.87
2018-08-22T20:36:39.189Z,36.88
2018-08-22T20:39:05.168Z,37.53
2018-08-22T20:41:31.132Z,36.93
2018-08-22T20:43:57.065Z,37.57
2018-08-22T20:46:22.989Z,36.90
2018-08-22T20:48:48.937Z,36.49
2018-08-22T20:51:14.905Z,36.83
2018-08-22T20:53:40.861Z,36.96
2018-08-22T20:56:06.844Z,37.95
2018-08-22T20:58:32.814Z,37.33
2018-08-22T21:00:58.868Z,37.38
2018-08-22T21:03:24.827Z,37.44
2018-08-22T21:05:50.761Z,38.01
2018-08-22T21:08:16.749Z,36.96
2018-08-22T21:10:42.688Z,37.18
2018-08-22T21:13:08.653Z,37.05
2018-08-22T21:15:34.591Z,37.75
2018-08-22T21:18:00.552Z,38.06
2018-08-22T21:20:26.504Z,38.03
2018-08-22T21:22:52.465Z,38.37
2018-08-22T21:25:18.436Z,38.36
2018-08-22T21:27:44.375Z,37.54
2018-08-22T21:30:10.373Z,37.66
2018-08-22T21:32:36.332Z,39.07
2018-08-22T21:35:02.322Z,38.37
2018-08-22T21:37:28.252Z,38.39
2018-08-22T21:39:54.205Z,38.39
2018-08-22T21:42:20.150Z,38.70
2018-08-22T21:44:46.117Z,38.35
2018-08-22T21:47:12.085Z,38.21
2018-08-22T21:49:38.060Z,37.80
2018-08-22T21:52:04.040Z,38.59
2018-08-22T21:54:30.001Z,39.00
2018-08-22T21:56:55.946Z,37.84
2018-08-22T21:59:21.905Z,38.55
2018-08-22T22:01:47.855Z,38.15
2018-08-22T22:04:13.808Z,38.56
2018-08-22T22:06:39.778Z,37.67
2018-08-22T22:09:05.750Z,38.10
2018-08-22T22:11:31.789Z,37.75
2018-08-22T22:13:57.753Z,37.94
2018-08-22T22:16:23.676Z,38.36
2018-08-22T22:18:49.629Z,38.02
2018-08-22T22:21:15.616Z,38.02
2018-08-22T22:23:41.572Z,37.70
2018-08-22T22:26:07.557Z,38.02
2018-08-22T22:28:33.507Z,38.43
2018-08-22T22:30:59.453Z,39.10
2018-08-22T22:33:25.439Z,38.37
2018-08-22T22:35:51.380Z,38.56
2018-08-22T22:38:17.327Z,39.06
2018-08-22T22:40:43.273Z,39.14
2018-08-22T22:43:09.218Z,38.66
2018-08-22T22:45:35.187Z,39.53
2018-08-22T22:48:01.149Z,39.75
2018-08-22T22:50:27.121Z,39.22
2018-08-22T22:52:53.089Z,38.78
2018-08-22T22:55:19.035Z,38.89
2018-08-22T22:57:44.996Z,39.60
2018-08-22T23:00:10.955Z,39.80
2018-08-22T23:02:36.917Z,40.19
2018-08-22T23:05:02.887Z,39.74
2018-08-22T23:07:28.864Z,39.93
2018-08-22T23:09:54.825Z,40.29
2018-08-22T23:12:20.784Z,40.26
2018-08-22T23:14:46.731Z,39.41
2018-08-22T23:17:12.734Z,39.85
2018-08-22T23:19:38.689Z,38.53
2018-08-22T23:22:04.670Z,39.78
2018-08-22T23:24:30.675Z,39.07
2018-08-22T23:26:56.643Z,39.24
2018-08-22T23:29:22.607Z,39.79
2018-08-22T23:31:48.582Z,39.76
2018-08-22T23:34:14.520Z,39.81
2018-08-22T23:36:40.458Z,39.32
2018-08-22T23:39:06.407Z,40.02
2018-08-22T23:41:32.391Z,39.10
2018-08-22T23:43:58.365Z,39.39
2018-08-22T23:46:24.311Z,40.00
2018-08-22T23:48:50.250Z,40.63
2018-08-22T23:51:16.208Z,40.35
2018-08-22T23:53:42.167Z,40.92
2018-08-22T23:56:08.149Z,39.93
2018-08-22T23:58:34.118Z,41.09
